createdAt,value
2022-11-30T00:01:18.345Z,10.66
2022-11-30T00:03:54.527Z,10.69
2022-11-30T00:06:27.511Z,10.68
2022-11-30T00:09:00.263Z,10.66
2022-11-30T00:11:34.081Z,10.64
2022-11-30T00:14:08.409Z,10.61
2022-11-30T00:16:41.424Z,10.61
2022-11-30T00:19:14.335Z,10.54
2022-11-30T00:21:47.716Z,10.60
2022-11-30T00:24:20.503Z,10.52
2022-11-30T00:26:53.480Z,10.57
2022-11-30T00:29:27.425Z,10.61
2022-11-30T00:32:00.266Z,10.70
2022-11-30T00:34:33.225Z,10.65
2022-11-30T00:37:06.022Z,10.60
2022-11-30T00:39:39.048Z,10.59
2022-11-30T00:42:12.359Z,10.64
2022-11-30T00:44:46.917Z,10.59
2022-11-30T00:47:20.202Z,10.57
2022-11-30T00:49:53.498Z,10.60
2022-11-30T00:52:26.427Z,10.59
2022-11-30T00:55:02.794Z,10.53
2022-11-30T00:57:37.178Z,10.60
2022-11-30T01:00:13.087Z,10.66
2022-11-30T01:02:46.266Z,10.61
2022-11-30T01:05:19.237Z,10.59
2022-11-30T01:07:52.331Z,10.65
2022-11-30T01:10:25.128Z,10.59
2022-11-30T01:12:58.295Z,10.66
2022-11-30T01:15:36.656Z,10.55
2022-11-30T01:18:10.140Z,10.54
2022-11-30T01:20:43.892Z,10.56
2022-11-30T01:23:16.928Z,10.51
2022-11-30T01:25:54.735Z,10.48
2022-11-30T01:28:27.633Z,10.52
2022-11-30T01:31:02.673Z,10.51
2022-11-30T01:33:36.675Z,10.53
2022-11-30T01:36:13.466Z,10.53
2022-11-30T01:38:49.693Z,10.52
2022-11-30T01:41:24.664Z,10.46
2022-11-30T01:43:59.699Z,10.49
2022-11-30T01:46:39.592Z,10.53
2022-11-30T01:49:18.206Z,10.51
2022-11-30T01:51:54.904Z,10.61
2022-11-30T01:54:34.298Z,10.49
2022-11-30T01:57:12.420Z,10.48
2022-11-30T01:59:45.572Z,10.49
2022-11-30T02:02:26.250Z,10.46
2022-11-30T02:04:59.135Z,10.47
2022-11-30T02:07:32.069Z,10.48
2022-11-30T02:10:06.268Z,10.49
2022-11-30T02:12:46.255Z,10.51
2022-11-30T02:15:23.926Z,10.43
2022-11-30T02:18:06.900Z,10.40
2022-11-30T02:21:02.210Z,10.47
2022-11-30T02:23:51.950Z,10.32
2022-11-30T02:26:40.736Z,10.43
2022-11-30T02:29:20.411Z,10.46
2022-11-30T02:32:02.717Z,10.37
2022-11-30T02:34:38.267Z,10.36
2022-11-30T02:37:15.069Z,10.39
2022-11-30T02:39:48.238Z,10.34
2022-11-30T02:42:21.317Z,10.32
2022-11-30T02:44:55.497Z,10.29
2022-11-30T02:47:36.232Z,10.37
2022-11-30T02:50:16.026Z,10.36
2022-11-30T02:52:49.781Z,10.35
2022-11-30T02:55:23.035Z,10.40
2022-11-30T02:57:55.739Z,10.31
2022-11-30T03:00:30.396Z,10.35
2022-11-30T03:03:04.557Z,10.34
2022-11-30T03:05:38.203Z,10.40
2022-11-30T03:08:11.152Z,10.39
2022-11-30T03:10:43.816Z,10.40
2022-11-30T03:13:16.808Z,10.39
2022-11-30T03:15:50.743Z,10.37
2022-11-30T03:18:23.793Z,10.33
2022-11-30T03:20:56.623Z,10.35
2022-11-30T03:23:30.254Z,10.32
2022-11-30T03:26:03.993Z,10.34
2022-11-30T03:28:37.848Z,10.36
2022-11-30T03:31:13.754Z,10.29
2022-11-30T03:33:46.658Z,10.35
2022-11-30T03:36:19.545Z,10.25
2022-11-30T03:38:52.938Z,10.26
2022-11-30T03:41:25.681Z,10.34
2022-11-30T03:43:58.394Z,10.35
2022-11-30T03:46:34.213Z,10.31
2022-11-30T03:49:07.310Z,10.26
2022-11-30T03:51:40.080Z,10.20
2022-11-30T03:54:13.063Z,10.21
2022-11-30T03:56:45.806Z,10.16
2022-11-30T03:59:18.581Z,10.12
2022-11-30T04:01:52.715Z,10.14
2022-11-30T04:04:25.611Z,10.13
2022-11-30T04:06:58.790Z,10.18
2022-11-30T04:09:31.927Z,10.15
2022-11-30T04:12:05.403Z,10.11
2022-11-30T04:14:38.259Z,10.03
2022-11-30T04:17:12.276Z,10.08
2022-11-30T04:19:44.979Z,10.05
2022-11-30T04:22:17.838Z,10.09
2022-11-30T04:24:50.772Z,10.08
2022-11-30T04:27:23.602Z,10.03
2022-11-30T04:29:58.326Z,10.07
2022-11-30T04:32:32.625Z,10.03
2022-11-30T04:35:06.126Z,10.01
2022-11-30T04:37:39.125Z,9.95
2022-11-30T04:40:12.334Z,9.98
2022-11-30T04:42:45.260Z,10.00
2022-11-30T04:45:18.142Z,9.94
2022-11-30T04:47:52.394Z,9.91
2022-11-30T04:50:25.764Z,9.93
2022-11-30T04:52:59.195Z,9.94
2022-11-30T04:55:32.584Z,9.90
2022-11-30T04:58:05.427Z,9.90
2022-11-30T05:00:41.924Z,9.86
2022-11-30T05:03:16.159Z,9.90
2022-11-30T05:05:49.662Z,9.89
2022-11-30T05:08:22.465Z,9.88
2022-11-30T05:10:55.851Z,9.90
2022-11-30T05:13:28.792Z,9.87
2022-11-30T05:16:01.523Z,9.84
2022-11-30T05:18:36.897Z,9.89
2022-11-30T05:21:09.777Z,9.89
2022-11-30T05:23:42.708Z,9.90
2022-11-30T05:26:15.715Z,9.92
2022-11-30T05:28:48.637Z,9.92
2022-11-30T05:31:21.440Z,9.88
2022-11-30T05:33:56.095Z,9.85
2022-11-30T05:36:29.502Z,9.90
2022-11-30T05:39:02.328Z,9.78
2022-11-30T05:41:35.105Z,9.73
2022-11-30T05:44:07.942Z,9.65
2022-11-30T05:46:42.420Z,9.71
2022-11-30T05:49:16.494Z,9.68
2022-11-30T05:51:49.856Z,9.67
2022-11-30T05:54:22.814Z,9.57
2022-11-30T05:56:55.561Z,9.56
2022-11-30T05:59:28.502Z,9.56
2022-11-30T06:02:01.133Z,9.54
2022-11-30T06:04:35.792Z,9.54
2022-11-30T06:07:12.609Z,9.51
2022-11-30T06:09:45.398Z,9.45
2022-11-30T06:12:18.346Z,9.51
2022-11-30T06:14:51.159Z,9.49
2022-11-30T06:17:23.921Z,9.40
2022-11-30T06:19:58.072Z,9.39
2022-11-30T06:22:31.561Z,9.43
2022-11-30T06:25:04.800Z,9.39
2022-11-30T06:27:37.735Z,9.38
2022-11-30T06:30:11.682Z,9.35
2022-11-30T06:32:46.372Z,9.27
2022-11-30T06:35:20.835Z,9.43
2022-11-30T06:37:54.765Z,9.37
2022-11-30T06:40:28.223Z,9.29
2022-11-30T06:43:01.360Z,9.28
2022-11-30T06:45:34.666Z,9.24
2022-11-30T06:48:07.671Z,9.24
2022-11-30T06:50:48.412Z,9.26
2022-11-30T06:53:23.401Z,9.26
2022-11-30T06:55:56.309Z,9.27
2022-11-30T06:58:29.414Z,9.22
2022-11-30T07:01:02.234Z,9.21
2022-11-30T07:03:35.603Z,9.24
2022-11-30T07:06:11.074Z,9.27
2022-11-30T07:08:45.540Z,9.22
2022-11-30T07:11:18.492Z,9.10
2022-11-30T07:13:51.457Z,9.11
2022-11-30T07:16:24.353Z,9.18
2022-11-30T07:18:57.308Z,9.22
2022-11-30T07:21:31.548Z,9.12
2022-11-30T07:24:21.927Z,9.13
2022-11-30T07:26:54.777Z,9.18
2022-11-30T07:29:28.080Z,9.19
2022-11-30T07:32:01.119Z,9.14
2022-11-30T07:34:33.956Z,9.16
2022-11-30T07:37:08.245Z,9.18
2022-11-30T07:39:41.072Z,9.13
2022-11-30T07:42:14.741Z,9.14
2022-11-30T07:44:51.442Z,9.18
2022-11-30T07:47:26.715Z,9.16
2022-11-30T07:49:59.546Z,9.18
2022-11-30T07:52:33.912Z,9.16
2022-11-30T07:55:08.716Z,9.17
2022-11-30T07:57:41.441Z,9.14
2022-11-30T08:00:18.041Z,9.18
2022-11-30T08:02:51.287Z,9.20
2022-11-30T08:05:24.113Z,9.20
2022-11-30T08:07:58.318Z,9.22
2022-11-30T08:10:32.148Z,9.24
2022-11-30T08:13:05.008Z,9.30
2022-11-30T08:15:38.287Z,9.23
2022-11-30T08:18:11.309Z,9.29
2022-11-30T08:20:49.698Z,9.35
2022-11-30T08:23:24.161Z,9.29
2022-11-30T08:25:57.140Z,9.28
2022-11-30T08:28:30.334Z,9.35
2022-11-30T08:31:03.991Z,9.35
2022-11-30T08:33:38.877Z,9.37
2022-11-30T08:36:14.160Z,9.35
2022-11-30T08:38:49.877Z,9.45
2022-11-30T08:41:23.446Z,9.48
2022-11-30T08:43:56.603Z,9.45
2022-11-30T08:49:24.512Z,9.43
2022-11-30T08:54:52.173Z,9.46
2022-11-30T08:57:27.893Z,9.53
2022-11-30T09:00:00.633Z,9.54
2022-11-30T09:02:33.377Z,9.60
2022-11-30T09:05:07.123Z,9.61
2022-11-30T09:07:39.890Z,9.61
2022-11-30T09:10:14.439Z,9.56
2022-11-30T09:12:47.089Z,9.61
2022-11-30T09:15:19.962Z,9.65
2022-11-30T09:17:52.809Z,9.64
2022-11-30T09:20:25.582Z,9.62
2022-11-30T09:23:00.572Z,9.68
2022-11-30T09:25:34.662Z,9.66
2022-11-30T09:28:12.179Z,9.65
2022-11-30T09:30:45.237Z,9.71
2022-11-30T09:33:18.156Z,9.61
2022-11-30T09:35:57.564Z,9.67
2022-11-30T09:38:30.587Z,9.66
2022-11-30T09:41:12.797Z,9.67
2022-11-30T09:43:52.665Z,9.72
2022-11-30T09:46:31.628Z,9.73
2022-11-30T09:49:06.861Z,9.77
2022-11-30T09:51:45.547Z,9.79
2022-11-30T09:54:22.375Z,9.85
2022-11-30T09:56:56.738Z,9.86
2022-11-30T09:59:32.782Z,9.91
2022-11-30T10:02:16.520Z,9.87
2022-11-30T10:04:49.736Z,9.86
2022-11-30T10:07:41.077Z,9.88
2022-11-30T10:10:34.011Z,9.97
2022-11-30T10:13:27.971Z,10.04
2022-11-30T10:16:10.917Z,10.12
2022-11-30T10:19:01.039Z,10.13
2022-11-30T10:21:46.632Z,10.19
2022-11-30T10:24:33.340Z,10.28
2022-11-30T10:27:16.726Z,10.59
2022-11-30T10:29:51.400Z,10.71
2022-11-30T10:32:33.595Z,10.73
2022-11-30T10:35:19.695Z,10.79
2022-11-30T10:37:54.761Z,10.83
2022-11-30T10:40:38.936Z,10.85
2022-11-30T10:43:22.780Z,10.94
2022-11-30T10:45:57.257Z,10.95
2022-11-30T10:48:38.482Z,11.01
2022-11-30T10:51:13.344Z,11.06
2022-11-30T10:53:46.900Z,11.04
2022-11-30T10:56:19.816Z,11.06
2022-11-30T10:58:57.916Z,10.99
2022-11-30T11:01:35.089Z,11.10
2022-11-30T11:04:17.225Z,11.13
2022-11-30T11:06:53.564Z,11.10
2022-11-30T11:09:37.942Z,11.08
2022-11-30T11:12:17.378Z,11.07
2022-11-30T11:14:50.467Z,11.21
2022-11-30T11:17:26.335Z,11.20
2022-11-30T11:19:59.882Z,11.32
2022-11-30T11:22:32.721Z,11.24
2022-11-30T11:25:17.394Z,11.46
2022-11-30T11:27:53.591Z,11.53
2022-11-30T11:30:34.469Z,11.75
2022-11-30T11:33:21.336Z,11.93
2022-11-30T11:35:55.960Z,11.97
2022-11-30T11:38:30.772Z,11.99
2022-11-30T11:41:06.443Z,11.99
2022-11-30T11:43:59.526Z,12.01
2022-11-30T11:46:34.113Z,12.00
2022-11-30T11:49:20.097Z,11.94
2022-11-30T11:52:02.032Z,11.86
2022-11-30T11:54:39.528Z,12.01
2022-11-30T11:57:15.439Z,12.07
2022-11-30T11:59:55.323Z,12.03
2022-11-30T12:02:35.913Z,11.99
2022-11-30T12:05:16.535Z,12.01
2022-11-30T12:08:02.335Z,11.94
2022-11-30T12:10:54.646Z,11.86
2022-11-30T12:13:32.498Z,11.80
2022-11-30T12:16:18.634Z,11.77
2022-11-30T12:18:59.546Z,11.72
2022-11-30T12:21:47.078Z,11.72
2022-11-30T12:24:36.419Z,11.70
2022-11-30T12:27:19.833Z,11.76
2022-11-30T12:30:06.201Z,11.73
2022-11-30T12:32:57.189Z,11.79
2022-11-30T12:35:38.095Z,11.79
2022-11-30T12:38:22.356Z,11.85
2022-11-30T12:41:05.679Z,11.89
2022-11-30T12:43:48.669Z,11.97
2022-11-30T12:46:27.211Z,11.98
2022-11-30T12:49:21.071Z,12.00
2022-11-30T12:52:04.351Z,12.17
2022-11-30T12:54:42.622Z,12.15
2022-11-30T12:57:21.391Z,12.15
2022-11-30T13:00:04.640Z,12.27
2022-11-30T13:02:47.306Z,12.35
2022-11-30T13:05:27.213Z,12.37
2022-11-30T13:08:06.751Z,12.42
2022-11-30T13:10:44.082Z,12.45
2022-11-30T13:13:22.160Z,12.41
2022-11-30T13:15:56.744Z,12.54
2022-11-30T13:18:30.557Z,12.52
2022-11-30T13:21:07.347Z,12.54
2022-11-30T13:23:45.010Z,12.51
2022-11-30T13:26:24.904Z,12.51
2022-11-30T13:29:18.617Z,12.49
2022-11-30T13:31:56.796Z,12.48
2022-11-30T13:34:31.085Z,12.48
2022-11-30T13:37:07.602Z,12.49
2022-11-30T13:39:48.937Z,12.50
2022-11-30T13:42:34.196Z,12.44
2022-11-30T13:45:30.332Z,12.36
2022-11-30T13:48:19.634Z,12.38
2022-11-30T13:50:52.793Z,12.40
2022-11-30T13:53:27.793Z,12.39
2022-11-30T13:56:28.932Z,12.48
2022-11-30T13:59:36.256Z,12.44
2022-11-30T14:02:58.560Z,12.38
2022-11-30T14:05:41.406Z,12.29
2022-11-30T14:08:32.344Z,12.33
2022-11-30T14:11:38.362Z,12.29
2022-11-30T14:14:45.772Z,12.29
2022-11-30T14:17:25.048Z,12.30
2022-11-30T14:20:01.745Z,12.26
2022-11-30T14:22:36.378Z,12.26
2022-11-30T14:25:14.196Z,12.31
2022-11-30T14:27:48.930Z,12.23
2022-11-30T14:30:24.559Z,12.21
2022-11-30T14:33:02.642Z,12.21
2022-11-30T14:35:40.144Z,12.13
2022-11-30T14:38:25.494Z,12.10
2022-11-30T14:40:59.462Z,12.12
2022-11-30T14:43:32.656Z,12.18
2022-11-30T14:46:11.634Z,12.18
2022-11-30T14:49:05.265Z,12.18
2022-11-30T14:51:40.825Z,12.16
2022-11-30T14:54:27.678Z,12.14
2022-11-30T14:57:03.736Z,12.16
2022-11-30T14:59:47.972Z,12.13
2022-11-30T15:02:29.709Z,12.10
2022-11-30T15:05:02.830Z,12.04
2022-11-30T15:07:37.593Z,12.03
2022-11-30T15:10:17.228Z,12.00
2022-11-30T15:12:50.296Z,11.97
2022-11-30T15:15:23.452Z,11.94
2022-11-30T15:17:58.930Z,11.93
2022-11-30T15:20:38.850Z,11.85
2022-11-30T15:23:14.485Z,11.83
2022-11-30T15:25:51.837Z,11.78
2022-11-30T15:28:28.936Z,11.73
2022-11-30T15:31:06.584Z,11.73
2022-11-30T15:33:44.057Z,11.69
2022-11-30T15:36:32.048Z,11.68
2022-11-30T15:39:08.588Z,11.65
2022-11-30T15:41:42.962Z,11.65
2022-11-30T15:44:26.799Z,11.63
2022-11-30T15:47:09.495Z,11.58
2022-11-30T15:49:55.342Z,11.55
2022-11-30T15:52:30.071Z,11.53
2022-11-30T15:55:05.282Z,11.49
2022-11-30T15:58:01.504Z,11.41
2022-11-30T16:00:35.003Z,11.39
2022-11-30T16:03:12.578Z,11.38
2022-11-30T16:05:58.170Z,11.32
2022-11-30T16:08:34.944Z,11.31
2022-11-30T16:11:08.478Z,11.28
2022-11-30T16:13:42.833Z,11.30
2022-11-30T16:16:21.054Z,11.24
2022-11-30T16:18:53.825Z,11.30
2022-11-30T16:21:26.748Z,11.26
2022-11-30T16:23:59.627Z,11.30
2022-11-30T16:26:50.434Z,11.36
2022-11-30T16:29:25.487Z,11.24
2022-11-30T16:31:58.443Z,11.21
2022-11-30T16:34:31.511Z,11.24
2022-11-30T16:37:05.119Z,11.23
2022-11-30T16:39:37.915Z,11.24
2022-11-30T16:42:13.222Z,11.21
2022-11-30T16:44:47.377Z,11.23
2022-11-30T16:47:20.141Z,11.23
2022-11-30T16:49:52.831Z,11.16
2022-11-30T16:52:25.558Z,11.21
2022-11-30T16:54:58.427Z,11.16
2022-11-30T16:57:31.307Z,11.15
2022-11-30T17:00:07.116Z,11.16
2022-11-30T17:02:43.955Z,11.15
2022-11-30T17:05:20.408Z,11.13
2022-11-30T17:07:54.611Z,11.07
2022-11-30T17:10:28.104Z,11.11
2022-11-30T17:13:01.287Z,11.09
2022-11-30T17:15:35.463Z,11.10
2022-11-30T17:18:11.618Z,11.08
2022-11-30T17:20:44.867Z,11.12
2022-11-30T17:23:17.792Z,11.10
2022-11-30T17:25:50.630Z,11.07
2022-11-30T17:28:23.637Z,11.11
2022-11-30T17:30:57.801Z,10.99
2022-11-30T17:33:32.787Z,11.02
2022-11-30T17:36:07.959Z,11.06
2022-11-30T17:38:44.234Z,11.05
2022-11-30T17:41:20.012Z,11.06
2022-11-30T17:43:53.271Z,11.04
2022-11-30T17:46:27.746Z,11.09
2022-11-30T17:49:00.764Z,11.06
2022-11-30T17:51:33.643Z,11.02
2022-11-30T17:54:06.876Z,11.03
2022-11-30T17:56:40.933Z,11.02
2022-11-30T17:59:13.689Z,11.05
2022-11-30T18:01:47.931Z,10.96
2022-11-30T18:04:20.903Z,10.98
2022-11-30T18:06:53.528Z,10.97
2022-11-30T18:09:28.810Z,11.03
2022-11-30T18:12:03.797Z,11.10
2022-11-30T18:14:37.035Z,11.07
2022-11-30T18:17:11.280Z,11.04
2022-11-30T18:19:44.193Z,11.02
2022-11-30T18:22:17.120Z,10.99
2022-11-30T18:24:50.431Z,10.99
2022-11-30T18:27:24.041Z,10.95
2022-11-30T18:29:57.300Z,10.97
2022-11-30T18:32:31.966Z,10.87
2022-11-30T18:35:05.295Z,10.88
2022-11-30T18:37:38.233Z,10.87
2022-11-30T18:40:13.250Z,10.73
2022-11-30T18:42:48.623Z,10.72
2022-11-30T18:45:21.612Z,10.61
2022-11-30T18:47:56.163Z,10.65
2022-11-30T18:50:31.089Z,10.56
2022-11-30T18:53:06.888Z,10.54
2022-11-30T18:55:39.965Z,10.45
2022-11-30T18:58:13.022Z,10.43
2022-11-30T19:00:48.321Z,10.36
2022-11-30T19:03:24.449Z,10.33
2022-11-30T19:05:57.539Z,10.29
2022-11-30T19:08:30.817Z,10.22
2022-11-30T19:11:05.844Z,10.22
2022-11-30T19:13:38.945Z,10.20
2022-11-30T19:16:13.103Z,10.19
2022-11-30T19:18:47.406Z,10.08
2022-11-30T19:21:25.292Z,10.07
2022-11-30T19:24:01.529Z,10.04
2022-11-30T19:26:40.132Z,9.98
2022-11-30T19:29:13.751Z,9.97
2022-11-30T19:31:47.047Z,10.03
2022-11-30T19:34:21.431Z,10.00
2022-11-30T19:36:54.506Z,9.94
2022-11-30T19:39:28.604Z,9.89
2022-11-30T19:42:01.866Z,9.90
2022-11-30T19:44:39.095Z,9.82
2022-11-30T19:47:12.185Z,9.80
2022-11-30T19:49:53.109Z,9.81
2022-11-30T19:52:26.592Z,9.76
2022-11-30T19:54:59.911Z,9.81
2022-11-30T19:57:33.035Z,9.73
2022-11-30T20:00:07.563Z,9.68
2022-11-30T20:02:48.219Z,9.64
2022-11-30T20:05:22.616Z,9.60
2022-11-30T20:07:56.270Z,9.61
2022-11-30T20:10:32.113Z,9.59
2022-11-30T20:13:05.370Z,9.60
2022-11-30T20:15:39.640Z,9.51
2022-11-30T20:18:14.603Z,9.48
2022-11-30T20:20:55.108Z,9.45
2022-11-30T20:23:30.315Z,9.52
2022-11-30T20:26:17.061Z,9.49
2022-11-30T20:28:51.980Z,9.44
2022-11-30T20:31:29.158Z,9.43
2022-11-30T20:34:02.586Z,9.36
2022-11-30T20:36:37.585Z,9.37
2022-11-30T20:39:14.487Z,9.39
2022-11-30T20:41:47.814Z,9.41
2022-11-30T20:44:21.346Z,9.39
2022-11-30T20:46:56.767Z,9.32
2022-11-30T20:49:32.142Z,9.33
2022-11-30T20:52:06.869Z,9.37
2022-11-30T20:54:39.671Z,9.36
2022-11-30T20:57:13.903Z,9.35
2022-11-30T20:59:47.025Z,9.34
2022-11-30T21:02:19.907Z,9.44
2022-11-30T21:04:54.212Z,9.37
2022-11-30T21:07:28.879Z,9.33
2022-11-30T21:10:01.712Z,9.27
2022-11-30T21:12:34.492Z,9.29
2022-11-30T21:15:09.780Z,9.35
2022-11-30T21:17:42.516Z,9.30
2022-11-30T21:20:15.295Z,9.35
2022-11-30T21:22:49.503Z,9.23
2022-11-30T21:25:22.514Z,9.33
2022-11-30T21:27:55.073Z,9.19
2022-11-30T21:30:27.804Z,9.19
2022-11-30T21:33:03.342Z,9.11
2022-11-30T21:35:36.318Z,9.12
2022-11-30T21:38:10.452Z,9.11
2022-11-30T21:40:43.911Z,9.12
2022-11-30T21:43:16.693Z,9.12
2022-11-30T21:45:57.849Z,9.09
2022-11-30T21:48:32.542Z,9.06
2022-11-30T21:51:07.646Z,9.05
2022-11-30T21:53:44.038Z,9.05
2022-11-30T21:56:19.562Z,9.06
2022-11-30T21:58:53.422Z,8.96
2022-11-30T22:01:29.110Z,8.91
2022-11-30T22:04:02.976Z,8.92
2022-11-30T22:06:37.652Z,8.97
2022-11-30T22:09:14.950Z,9.03
2022-11-30T22:11:50.090Z,8.93
2022-11-30T22:14:23.449Z,8.98
2022-11-30T22:16:57.118Z,8.98
2022-11-30T22:19:30.040Z,8.93
2022-11-30T22:22:02.851Z,8.90
2022-11-30T22:24:37.053Z,8.90
2022-11-30T22:27:09.871Z,8.90
2022-11-30T22:29:42.645Z,8.95
2022-11-30T22:32:15.437Z,8.85
2022-11-30T22:34:48.201Z,8.90
2022-11-30T22:37:21.049Z,8.87
2022-11-30T22:39:55.107Z,8.84
2022-11-30T22:42:27.975Z,8.85
2022-11-30T22:45:00.705Z,8.76
2022-11-30T22:47:33.865Z,8.70
2022-11-30T22:50:07.900Z,8.69
2022-11-30T22:53:02.051Z,8.69
2022-11-30T22:55:48.241Z,8.69
2022-11-30T22:58:21.615Z,8.68
2022-11-30T23:00:54.798Z,8.66
2022-11-30T23:03:31.399Z,8.61
2022-11-30T23:06:04.625Z,8.62
2022-11-30T23:08:41.583Z,8.54
2022-11-30T23:11:19.178Z,8.60
2022-11-30T23:13:52.916Z,8.53
2022-11-30T23:16:26.598Z,8.53
2022-11-30T23:19:01.572Z,8.58
2022-11-30T23:21:41.078Z,8.52
2022-11-30T23:24:17.073Z,8.51
2022-11-30T23:26:51.496Z,8.56
2022-11-30T23:29:24.768Z,8.50
2022-11-30T23:31:57.873Z,8.43
2022-11-30T23:34:30.854Z,8.45
2022-11-30T23:37:03.643Z,8.44
2022-11-30T23:39:36.535Z,8.39
2022-11-30T23:42:10.386Z,8.41
2022-11-30T23:44:43.240Z,8.36
2022-11-30T23:47:18.441Z,8.31
2022-11-30T23:49:51.922Z,8.31
2022-11-30T23:52:25.031Z,8.32
2022-11-30T23:55:00.368Z,8.30
2022-11-30T23:57:35.156Z,8.26
